Portada
METAR-TAF:

METAR-TAF

Aeropuertos :

Huesca, España

Aeropuerto de Huesca-Pirineos

latitud: 42-04-32N, longitud: 0-18-58W, altitud: 539 m

Observación

El informe se hizo hace 25 minutos, a las 08:00 UTC
Viento 11 kt del este, variando entre este-noreste y este-sureste
Temperatura 23°C
Humedad 41%
Presión 1021 hPa
Visibilidad 10 km o más
Escasas nubes a una altura de 3500 ft

METAR: LEHC 280800Z 09011KT 060V120 9999 FEW035 23/09 Q1021

Hora: 10:25 (08:25 UTC)

Pronóstico

El informe se hizo hace 6 horas y 25 minutos, a las 02:00 UTC
Pronóstico válido del 28 a las 03 UTC al 29 a las 03 UTC
Viento 12 kt del este-sureste
Visibilidad 10 km o más
Escasas nubes a una altura de 3000 ft
Temporalmente
del 28 a las 12 UTC al 28 a las 21 UTC
Viento 18 kt del sureste con ráfagas de 28 kt

TAF: LEHC 280200Z 2803/2903 11012KT 9999 FEW030 TX31/2813Z TN16/2806Z TEMPO 2812/2821 13018G28KT

Observaciones y pronósticos meteorológicos de más de 4000 aeropuertos (mensajes METAR y TAF).

Los puntos amarillos y rojos representan las estaciones disponibles.

Ponga el ratón en el punto deseado para ver el nombre de la estación.

Haga clic para ver las observaciones y los pronósticos meteorológicos.

Para cambiar el mapa : haga clic en los botones verdes con una cruz de color negro para hacer un zoom, en el botón verde con un guión para alejar o en las flechas verdes para mapas adyacentes.


METAR-TAF: